createdAt,value
2022-09-07T00:01:48.686Z,14.00
2022-09-07T00:04:26.612Z,12.70
2022-09-07T00:06:56.579Z,15.20
2022-09-07T00:09:24.336Z,14.70
2022-09-07T00:11:55.058Z,15.60
2022-09-07T00:14:33.361Z,14.80
2022-09-07T00:17:00.999Z,14.90
2022-09-07T00:20:24.497Z,17.80
2022-09-07T00:23:11.973Z,15.80
2022-09-07T00:25:39.982Z,16.10
2022-09-07T00:28:08.944Z,12.90
2022-09-07T00:30:44.257Z,13.30
2022-09-07T00:33:11.707Z,13.30
2022-09-07T00:35:41.234Z,14.30
2022-09-07T00:38:19.624Z,12.70
2022-09-07T00:40:47.506Z,13.70
2022-09-07T00:43:17.589Z,12.60
2022-09-07T00:45:45.034Z,14.80
2022-09-07T00:48:17.090Z,13.60
2022-09-07T00:50:46.650Z,11.40
2022-09-07T00:53:28.858Z,13.50
2022-09-07T00:55:56.087Z,13.80
2022-09-07T00:58:23.310Z,13.30
2022-09-07T01:00:50.910Z,12.30
2022-09-07T01:03:20.603Z,14.00
2022-09-07T01:06:00.991Z,15.60
2022-09-07T01:08:28.374Z,13.70
2022-09-07T01:10:56.087Z,14.70
2022-09-07T01:13:27.392Z,12.30
2022-09-07T01:16:19.587Z,13.10
2022-09-07T01:19:00.529Z,13.70
2022-09-07T01:21:59.149Z,14.60
2022-09-07T01:24:38.361Z,13.40
2022-09-07T01:27:18.105Z,14.00
2022-09-07T01:29:55.436Z,12.20
2022-09-07T01:32:35.535Z,14.30
2022-09-07T01:35:04.616Z,11.80
2022-09-07T01:37:34.443Z,10.90
2022-09-07T01:40:12.933Z,10.90
2022-09-07T01:45:27.545Z,14.20
2022-09-07T01:47:56.763Z,11.60
2022-09-07T01:50:53.142Z,12.30
2022-09-07T01:53:35.455Z,14.40
2022-09-07T01:56:27.439Z,14.00
2022-09-07T01:59:15.579Z,11.50
2022-09-07T02:02:03.724Z,11.00
2022-09-07T02:04:36.095Z,11.80
2022-09-07T02:07:12.453Z,11.00
2022-09-07T02:09:53.017Z,14.10
2022-09-07T02:12:48.103Z,15.90
2022-09-07T02:15:55.083Z,13.50
2022-09-07T02:18:23.152Z,12.90
2022-09-07T02:20:52.894Z,15.20
2022-09-07T02:23:29.494Z,10.90
2022-09-07T02:26:02.646Z,11.30
2022-09-07T02:28:32.393Z,14.00
2022-09-07T02:31:00.388Z,11.60
2022-09-07T02:33:28.294Z,13.60
2022-09-07T02:35:56.163Z,12.50
2022-09-07T02:38:23.516Z,11.60
2022-09-07T02:41:05.500Z,12.50
2022-09-07T02:43:39.295Z,13.30
2022-09-07T02:49:05.351Z,13.00
2022-09-07T02:51:50.542Z,12.90
2022-09-07T02:55:27.195Z,11.70
2022-09-07T02:58:19.672Z,12.70
2022-09-07T03:01:30.115Z,13.60
2022-09-07T03:04:24.597Z,11.80
2022-09-07T03:07:18.290Z,13.40
2022-09-07T03:09:51.319Z,10.00
2022-09-07T03:12:38.196Z,12.30
2022-09-07T03:15:15.268Z,12.10
2022-09-07T03:17:53.588Z,12.30
2022-09-07T03:20:21.757Z,15.50
2022-09-07T03:22:53.310Z,19.00
2022-09-07T03:25:26.401Z,14.30
2022-09-07T03:27:54.210Z,13.60
2022-09-07T03:30:24.682Z,11.90
2022-09-07T03:32:55.220Z,12.20
2022-09-07T03:35:22.580Z,12.90
2022-09-07T03:37:52.961Z,12.00
2022-09-07T03:40:33.242Z,11.50
2022-09-07T03:43:01.225Z,10.70
2022-09-07T03:45:28.875Z,14.30
2022-09-07T03:48:00.746Z,12.80
2022-09-07T03:50:34.018Z,12.50
2022-09-07T03:53:01.591Z,14.40
2022-09-07T03:55:29.482Z,12.50
2022-09-07T03:57:57.287Z,13.40
2022-09-07T04:00:26.172Z,15.90
2022-09-07T04:02:56.912Z,13.40
2022-09-07T04:05:24.307Z,15.30
2022-09-07T04:07:56.995Z,15.00
2022-09-07T04:10:27.854Z,16.30
2022-09-07T04:13:03.027Z,15.80
2022-09-07T04:16:32.986Z,14.60
2022-09-07T04:19:06.690Z,11.40
2022-09-07T04:21:34.421Z,12.70
2022-09-07T04:24:07.906Z,14.00
2022-09-07T04:26:43.288Z,14.30
2022-09-07T04:29:11.386Z,13.80
2022-09-07T04:31:41.678Z,15.90
2022-09-07T04:34:10.460Z,17.30
2022-09-07T04:36:40.613Z,17.60
2022-09-07T04:39:13.716Z,11.60
2022-09-07T04:41:56.813Z,12.50
2022-09-07T04:44:27.126Z,17.20
2022-09-07T04:46:54.683Z,18.10
2022-09-07T04:49:22.279Z,16.60
2022-09-07T04:51:50.527Z,18.20
2022-09-07T04:54:18.563Z,11.60
2022-09-07T04:56:46.067Z,19.60
2022-09-07T04:59:21.399Z,12.10
2022-09-07T05:01:53.689Z,12.50
2022-09-07T05:04:23.713Z,15.50
2022-09-07T05:07:01.951Z,16.60
2022-09-07T05:09:29.980Z,20.20
2022-09-07T05:12:05.021Z,10.20
2022-09-07T05:14:45.372Z,14.80
2022-09-07T05:17:13.440Z,14.50
2022-09-07T05:19:41.093Z,15.10
2022-09-07T05:22:08.761Z,17.70
2022-09-07T05:24:47.741Z,15.60
2022-09-07T05:27:17.634Z,14.00
2022-09-07T05:30:01.150Z,17.10
2022-09-07T05:32:29.435Z,14.00
2022-09-07T05:35:00.087Z,17.50
2022-09-07T05:37:27.838Z,12.00
2022-09-07T05:39:58.508Z,21.30
2022-09-07T05:42:31.632Z,10.00
2022-09-07T05:47:38.138Z,11.70
2022-09-07T05:50:06.762Z,10.20
2022-09-07T05:52:35.731Z,19.00
2022-09-07T05:55:28.310Z,30.50
2022-09-07T05:58:05.126Z,34.40
2022-09-07T06:00:32.570Z,24.10
2022-09-07T06:03:00.171Z,19.50
2022-09-07T06:05:33.836Z,42.80
2022-09-07T06:08:11.307Z,24.80
2022-09-07T06:10:45.785Z,14.90
2022-09-07T06:13:15.933Z,12.50
2022-09-07T06:15:46.081Z,17.00
2022-09-07T06:18:13.762Z,12.30
2022-09-07T06:20:52.794Z,13.70
2022-09-07T06:23:24.165Z,13.50
2022-09-07T06:25:54.516Z,16.40
2022-09-07T06:28:36.151Z,12.40
2022-09-07T06:31:13.078Z,10.20
2022-09-07T06:34:14.655Z,12.40
2022-09-07T06:36:42.179Z,11.10
2022-09-07T06:39:15.134Z,13.90
2022-09-07T06:44:31.992Z,10.60
2022-09-07T06:49:37.563Z,11.90
2022-09-07T06:52:21.796Z,13.80
2022-09-07T06:55:04.930Z,10.20
2022-09-07T06:57:42.323Z,13.90
2022-09-07T07:00:10.965Z,17.60
2022-09-07T07:02:38.594Z,10.70
2022-09-07T07:05:06.506Z,15.30
2022-09-07T07:07:34.314Z,13.30
2022-09-07T07:10:05.562Z,12.30
2022-09-07T07:15:06.130Z,9.60
2022-09-07T07:17:43.843Z,14.00
2022-09-07T07:20:12.170Z,9.80
2022-09-07T07:22:46.580Z,11.60
2022-09-07T07:25:57.560Z,11.60
2022-09-07T07:31:41.501Z,10.60
2022-09-07T07:34:12.315Z,8.90
2022-09-07T07:36:40.466Z,8.70
2022-09-07T07:42:27.518Z,12.30
2022-09-07T07:48:03.290Z,11.60
2022-09-07T07:50:35.624Z,12.80
2022-09-07T07:55:56.365Z,9.00
2022-09-07T07:58:27.312Z,9.50
2022-09-07T08:01:08.880Z,11.60
2022-09-07T08:04:00.209Z,7.60
2022-09-07T08:06:33.330Z,9.10
2022-09-07T08:09:03.684Z,8.20
2022-09-07T08:11:31.305Z,9.10
2022-09-07T08:14:05.965Z,6.70
2022-09-07T08:16:37.766Z,10.60
2022-09-07T08:19:05.983Z,8.80
2022-09-07T08:21:35.895Z,10.10
2022-09-07T08:26:34.491Z,8.40
2022-09-07T08:29:02.020Z,4.90
2022-09-07T08:31:29.550Z,7.20
2022-09-07T08:33:57.264Z,7.40
2022-09-07T08:36:31.892Z,7.50
2022-09-07T08:39:22.869Z,7.50
2022-09-07T08:42:16.259Z,7.60
2022-09-07T08:44:51.779Z,7.10
2022-09-07T08:47:58.197Z,8.40
2022-09-07T08:50:33.845Z,10.20
2022-09-07T08:53:19.409Z,4.30
2022-09-07T08:55:57.120Z,5.20
2022-09-07T08:59:34.360Z,11.90
2022-09-07T09:04:14.768Z,13.50
2022-09-07T09:07:56.052Z,15.20
2022-09-07T09:11:27.502Z,12.30
2022-09-07T09:14:53.811Z,5.50
2022-09-07T09:17:56.109Z,6.00
2022-09-07T09:20:56.171Z,13.50
2022-09-07T09:23:47.954Z,18.90
2022-09-07T09:26:26.176Z,6.30
2022-09-07T09:29:21.970Z,8.80
2022-09-07T09:32:22.445Z,6.50
2022-09-07T09:35:10.219Z,6.30
2022-09-07T09:38:01.804Z,17.90
2022-09-07T09:40:36.498Z,8.70
2022-09-07T09:43:16.560Z,8.50
2022-09-07T09:49:26.942Z,19.40
2022-09-07T09:52:31.240Z,7.20
2022-09-07T09:55:44.186Z,8.60
2022-09-07T09:59:05.718Z,9.70
2022-09-07T10:04:39.953Z,9.00
2022-09-07T10:07:45.947Z,10.30
2022-09-07T10:10:26.478Z,15.10
2022-09-07T10:12:57.036Z,10.20
2022-09-07T10:15:56.501Z,12.60
2022-09-07T10:18:30.292Z,9.10
2022-09-07T10:21:30.407Z,4.80
2022-09-07T10:24:15.197Z,9.30
2022-09-07T10:26:45.209Z,6.70
2022-09-07T10:29:36.063Z,8.40
2022-09-07T10:32:09.695Z,9.10
2022-09-07T10:35:08.647Z,15.80
2022-09-07T10:37:54.807Z,10.20
2022-09-07T10:40:44.479Z,9.10
2022-09-07T10:43:50.035Z,41.50
2022-09-07T10:46:57.611Z,5.80
2022-09-07T10:49:40.192Z,9.90
2022-09-07T10:52:46.026Z,5.50
2022-09-07T10:55:32.411Z,11.00
2022-09-07T10:58:20.414Z,18.70
2022-09-07T11:01:03.493Z,9.50
2022-09-07T11:04:17.403Z,9.50
2022-09-07T11:06:49.399Z,10.10
2022-09-07T11:09:57.879Z,7.60
2022-09-07T11:12:43.709Z,5.80
2022-09-07T11:15:19.860Z,6.70
2022-09-07T11:18:08.784Z,11.40
2022-09-07T11:20:55.584Z,8.40
2022-09-07T11:23:44.241Z,6.20
2022-09-07T11:26:30.090Z,5.70
2022-09-07T11:29:32.695Z,14.80
2022-09-07T11:32:09.900Z,7.10
2022-09-07T11:34:45.227Z,6.60
2022-09-07T11:37:46.614Z,6.40
2022-09-07T11:40:28.478Z,9.00
2022-09-07T11:43:08.071Z,5.10
2022-09-07T11:46:05.154Z,6.00
2022-09-07T11:48:47.589Z,7.60
2022-09-07T11:51:26.537Z,11.80
2022-09-07T11:54:26.356Z,54.30
2022-09-07T11:57:11.583Z,5.50
2022-09-07T12:00:12.963Z,6.20
2022-09-07T12:03:02.481Z,6.10
2022-09-07T12:05:54.443Z,3.50
2022-09-07T12:08:34.110Z,4.30
2022-09-07T12:11:21.297Z,4.70
2022-09-07T12:14:15.969Z,5.50
2022-09-07T12:17:02.952Z,3.80
2022-09-07T12:19:31.087Z,4.40
2022-09-07T12:22:01.519Z,4.40
2022-09-07T12:24:37.836Z,6.70
2022-09-07T12:27:20.367Z,5.50
2022-09-07T12:29:52.744Z,6.50
2022-09-07T12:32:56.482Z,6.10
2022-09-07T12:35:50.743Z,4.70
2022-09-07T12:38:20.398Z,4.80
2022-09-07T12:41:25.259Z,8.70
2022-09-07T12:43:54.121Z,5.70
2022-09-07T12:46:34.869Z,17.30
2022-09-07T12:49:12.092Z,6.20
2022-09-07T12:52:06.808Z,6.50
2022-09-07T12:55:04.395Z,7.80
2022-09-07T12:57:54.958Z,10.90
2022-09-07T13:00:26.017Z,7.80
2022-09-07T13:03:49.619Z,8.40
2022-09-07T13:06:17.753Z,7.60
2022-09-07T13:09:17.341Z,4.80
2022-09-07T13:11:45.733Z,7.70
2022-09-07T13:14:18.284Z,5.70
2022-09-07T13:17:22.237Z,10.30
2022-09-07T13:19:55.863Z,24.00
2022-09-07T13:22:42.028Z,16.70
2022-09-07T13:25:24.790Z,6.70
2022-09-07T13:28:05.994Z,9.10
2022-09-07T13:30:33.677Z,5.50
2022-09-07T13:33:27.587Z,5.00
2022-09-07T13:36:00.399Z,8.80
2022-09-07T13:38:38.087Z,6.60
2022-09-07T13:41:13.425Z,4.60
2022-09-07T13:43:57.095Z,6.30
2022-09-07T13:47:09.892Z,9.60
2022-09-07T13:50:21.622Z,3.50
2022-09-07T13:53:29.347Z,8.50
2022-09-07T13:56:37.852Z,20.50
2022-09-07T13:59:17.889Z,3.80
2022-09-07T14:01:51.059Z,6.30
2022-09-07T14:05:00.536Z,6.00
2022-09-07T14:07:31.955Z,12.00
2022-09-07T14:10:23.189Z,7.50
2022-09-07T14:13:08.461Z,13.80
2022-09-07T14:15:37.033Z,9.40
2022-09-07T14:18:15.233Z,6.20
2022-09-07T14:20:50.657Z,23.20
2022-09-07T14:23:28.238Z,13.90
2022-09-07T14:26:22.867Z,6.70
2022-09-07T14:29:03.261Z,11.50
2022-09-07T14:31:36.604Z,5.60
2022-09-07T14:34:04.495Z,8.50
2022-09-07T14:36:46.931Z,9.00
2022-09-07T14:39:24.225Z,11.40
2022-09-07T14:41:54.478Z,6.90
2022-09-07T14:44:49.378Z,6.40
2022-09-07T14:47:20.290Z,13.00
2022-09-07T14:49:55.799Z,8.70
2022-09-07T14:53:34.054Z,27.10
2022-09-07T14:55:39.930Z,8.10
2022-09-07T14:58:36.419Z,9.20
2022-09-07T15:04:21.784Z,5.90
2022-09-07T15:07:27.993Z,7.10
2022-09-07T15:09:59.225Z,7.10
2022-09-07T15:15:26.195Z,9.90
2022-09-07T15:18:23.400Z,7.10
2022-09-07T15:20:51.331Z,4.30
2022-09-07T15:24:03.954Z,146.00
2022-09-07T15:27:06.963Z,81.00
2022-09-07T15:29:46.929Z,37.00
2022-09-07T15:32:19.797Z,15.70
2022-09-07T15:35:24.775Z,12.10
2022-09-07T15:38:03.212Z,11.10
2022-09-07T15:41:10.361Z,8.80
2022-09-07T15:43:31.978Z,11.30
2022-09-07T15:46:15.047Z,11.30
2022-09-07T15:48:55.054Z,18.00
2022-09-07T15:54:16.763Z,48.10
2022-09-07T16:00:07.460Z,70.20
2022-09-07T16:03:09.883Z,70.50
2022-09-07T16:05:44.062Z,66.50
2022-09-07T16:08:32.705Z,131.90
2022-09-07T16:11:35.333Z,241.80
2022-09-07T16:14:14.060Z,261.80
2022-09-07T16:22:09.011Z,166.70
2022-09-07T16:24:39.034Z,140.90
2022-09-07T16:27:10.841Z,86.00
2022-09-07T16:29:38.919Z,73.60
2022-09-07T16:34:58.775Z,34.00
2022-09-07T16:37:26.339Z,29.60
2022-09-07T16:39:54.126Z,32.90
2022-09-07T16:42:21.683Z,34.70
2022-09-07T16:47:56.783Z,36.40
2022-09-07T16:50:27.430Z,44.90
2022-09-07T16:53:00.515Z,40.90
2022-09-07T16:55:27.915Z,32.00
2022-09-07T17:00:46.848Z,43.70
2022-09-07T17:03:14.745Z,46.60
2022-09-07T17:05:48.044Z,47.50
2022-09-07T17:08:15.669Z,45.70
2022-09-07T17:10:48.803Z,58.90
2022-09-07T17:13:18.222Z,64.10
2022-09-07T17:15:48.069Z,66.20
2022-09-07T17:18:18.965Z,82.50
2022-09-07T17:21:01.820Z,115.70
2022-09-07T17:23:54.743Z,166.90
2022-09-07T17:26:27.308Z,169.00
2022-09-07T17:29:08.539Z,154.60
2022-09-07T17:34:34.266Z,104.50
2022-09-07T17:37:08.312Z,106.60
2022-09-07T17:39:40.528Z,117.20
2022-09-07T17:42:16.932Z,135.20
2022-09-07T17:44:53.130Z,147.10
2022-09-07T17:47:50.437Z,132.40
2022-09-07T17:51:22.048Z,141.50
2022-09-07T17:54:02.723Z,117.80
2022-09-07T17:57:35.639Z,130.40
2022-09-07T18:00:58.278Z,134.20
2022-09-07T18:03:36.176Z,138.70
2022-09-07T18:06:26.953Z,142.80
2022-09-07T18:09:03.034Z,138.30
2022-09-07T18:11:51.408Z,124.60
2022-09-07T18:14:23.481Z,120.10
2022-09-07T18:16:51.059Z,119.20
2022-09-07T18:19:28.993Z,99.80
2022-09-07T18:22:06.218Z,92.90
2022-09-07T18:24:36.935Z,74.30
2022-09-07T18:27:07.941Z,67.10
2022-09-07T18:29:38.571Z,78.10
2022-09-07T18:32:10.143Z,93.40
2022-09-07T18:34:38.395Z,67.70
2022-09-07T18:37:08.328Z,57.80
2022-09-07T18:39:42.371Z,55.60
2022-09-07T18:42:10.013Z,55.40
2022-09-07T18:47:55.404Z,55.30
2022-09-07T18:50:23.375Z,59.10
2022-09-07T18:53:10.575Z,53.20
2022-09-07T18:55:44.181Z,58.20
2022-09-07T18:58:15.189Z,62.90
2022-09-07T19:00:50.301Z,61.80
2022-09-07T19:03:18.133Z,63.80
2022-09-07T19:05:50.054Z,73.00
2022-09-07T19:08:18.192Z,74.90
2022-09-07T19:10:54.850Z,90.20
2022-09-07T19:13:34.369Z,98.70
2022-09-07T19:16:18.253Z,123.10
2022-09-07T19:18:49.556Z,124.30
2022-09-07T19:21:43.085Z,119.90
2022-09-07T19:24:22.361Z,109.50
2022-09-07T19:27:00.714Z,92.60
2022-09-07T19:29:35.605Z,92.10
2022-09-07T19:32:14.949Z,92.40
2022-09-07T19:34:58.065Z,80.80
2022-09-07T19:37:26.018Z,71.20
2022-09-07T19:39:57.555Z,71.40
2022-09-07T19:42:27.866Z,64.20
2022-09-07T19:47:23.982Z,49.30
2022-09-07T19:49:57.164Z,40.30
2022-09-07T19:52:27.071Z,42.60
2022-09-07T19:54:59.834Z,41.30
2022-09-07T19:57:31.188Z,41.80
2022-09-07T20:00:00.515Z,49.20
2022-09-07T20:02:27.991Z,50.60
2022-09-07T20:04:55.718Z,48.20
2022-09-07T20:07:23.357Z,43.20
2022-09-07T20:09:53.515Z,37.50
2022-09-07T20:12:24.244Z,37.90
2022-09-07T20:14:54.140Z,29.80
2022-09-07T20:17:29.657Z,34.10
2022-09-07T20:20:18.143Z,35.70
2022-09-07T20:22:49.061Z,32.00
2022-09-07T20:25:18.964Z,27.10
2022-09-07T20:27:46.869Z,28.00
2022-09-07T20:30:24.423Z,31.30
2022-09-07T20:33:08.473Z,27.80
2022-09-07T20:35:36.684Z,29.70
2022-09-07T20:38:21.898Z,23.20
2022-09-07T20:40:55.971Z,25.00
2022-09-07T20:43:23.521Z,25.70
2022-09-07T20:46:01.189Z,30.20
2022-09-07T20:48:31.524Z,26.50
2022-09-07T20:51:00.457Z,28.90
2022-09-07T20:53:28.041Z,26.00
2022-09-07T20:56:03.337Z,26.20
2022-09-07T20:58:35.911Z,29.20
2022-09-07T21:01:08.761Z,21.60
2022-09-07T21:03:40.848Z,25.00
2022-09-07T21:06:14.343Z,26.70
2022-09-07T21:11:31.992Z,28.10
2022-09-07T21:14:09.254Z,31.10
2022-09-07T21:16:42.770Z,26.20
2022-09-07T21:19:13.517Z,29.00
2022-09-07T21:21:42.168Z,27.20
2022-09-07T21:24:38.855Z,26.70
2022-09-07T21:27:09.061Z,33.20
2022-09-07T21:29:39.796Z,25.20
2022-09-07T21:32:07.235Z,29.90
2022-09-07T21:34:35.214Z,28.40
2022-09-07T21:37:14.147Z,33.20
2022-09-07T21:39:49.122Z,33.40
2022-09-07T21:42:30.256Z,37.10
2022-09-07T21:45:02.419Z,39.10
2022-09-07T21:47:38.486Z,35.40
2022-09-07T21:50:06.348Z,31.60
2022-09-07T21:52:54.198Z,35.30
2022-09-07T21:55:59.002Z,34.20
2022-09-07T21:58:41.352Z,41.60
2022-09-07T22:01:13.441Z,41.90
2022-09-07T22:03:48.546Z,45.80
2022-09-07T22:06:23.341Z,54.00
2022-09-07T22:08:53.836Z,46.10
2022-09-07T22:11:26.925Z,56.20
2022-09-07T22:16:51.136Z,47.90
2022-09-07T22:19:26.800Z,49.40
2022-09-07T22:22:00.008Z,57.90
2022-09-07T22:24:29.906Z,57.70
2022-09-07T22:27:13.582Z,55.40
2022-09-07T22:29:44.989Z,57.70
2022-09-07T22:32:12.545Z,60.20
2022-09-07T22:34:43.933Z,59.10
2022-09-07T22:37:14.762Z,50.80
2022-09-07T22:39:46.134Z,48.30
2022-09-07T22:42:16.302Z,55.00
2022-09-07T22:44:43.575Z,51.60
2022-09-07T22:47:16.264Z,55.30
2022-09-07T22:49:49.158Z,51.80
2022-09-07T22:52:17.050Z,46.20
2022-09-07T22:54:47.727Z,43.90
2022-09-07T22:57:19.111Z,35.60
2022-09-07T22:59:47.026Z,34.70
2022-09-07T23:02:14.627Z,35.00
2022-09-07T23:05:03.372Z,34.50
2022-09-07T23:08:00.158Z,31.60
2022-09-07T23:10:30.459Z,28.70
2022-09-07T23:13:16.894Z,30.10
2022-09-07T23:16:28.295Z,27.20
2022-09-07T23:19:04.486Z,24.50
2022-09-07T23:21:32.246Z,28.80
2022-09-07T23:24:10.371Z,36.20
2022-09-07T23:26:40.770Z,37.40
2022-09-07T23:29:14.618Z,37.80
2022-09-07T23:31:42.341Z,41.40
2022-09-07T23:34:15.467Z,41.00
2022-09-07T23:36:53.359Z,41.90
2022-09-07T23:39:42.018Z,39.60
2022-09-07T23:42:17.844Z,40.50
2022-09-07T23:44:48.572Z,36.40
2022-09-07T23:47:16.243Z,35.70
2022-09-07T23:49:56.448Z,33.90
2022-09-07T23:52:47.495Z,31.30
2022-09-07T23:55:15.211Z,33.60
2022-09-07T23:57:54.033Z,33.50
